Time;durP1;ratioP1;P1;durP2;ratioP2;P2;SDS_P1;SDS_P2;PMS_P1;PMS_P2;Temp;Humidity;BMP_temperature;BMP_pressure;BME280_temperature;BME280_humidity;BME280_pressure;Samples;Min_cycle;Max_cycle;Signal;HPM_P1;HPM_P2
2021/06/10 00:01:03;;;;;;;3.97;2.67;;;18.60;85.00;;;;;;6184581;23;20430;-68
2021/06/10 00:03:29;;;;;;;3.25;2.75;;;18.50;85.30;;;;;;6184626;23;20001;-68
2021/06/10 00:05:55;;;;;;;3.10;2.25;;;18.50;85.70;;;;;;6184798;23;20092;-69
2021/06/10 00:08:21;;;;;;;6.03;2.72;;;18.40;87.20;;;;;;6184972;23;20023;-69
2021/06/10 00:10:48;;;;;;;2.88;2.63;;;18.30;86.90;;;;;;6184439;23;20364;-69
2021/06/10 00:13:16;;;;;;;3.40;3.10;;;18.30;87.70;;;;;;6184504;23;20087;-68
2021/06/10 00:15:42;;;;;;;4.43;3.00;;;18.10;88.50;;;;;;6184146;23;20066;-68
2021/06/10 00:18:08;;;;;;;3.22;2.80;;;18.10;89.10;;;;;;6185046;23;20046;-70
2021/06/10 00:20:38;;;;;;;3.25;2.95;;;18.00;89.60;;;;;;6184554;23;20009;-70
2021/06/10 00:23:05;;;;;;;3.65;3.22;;;18.00;90.10;;;;;;6184791;23;20005;-70
2021/06/10 00:25:31;;;;;;;3.00;2.70;;;17.90;90.50;;;;;;6184603;23;20001;-68
2021/06/10 00:27:59;;;;;;;5.43;2.80;;;17.80;90.80;;;;;;6184551;23;20052;-68
2021/06/10 00:30:26;;;;;;;3.38;3.08;;;17.80;91.20;;;;;;6184450;23;20001;-68
2021/06/10 00:32:52;;;;;;;3.45;3.00;;;17.70;91.70;;;;;;6184289;23;20001;-69
2021/06/10 00:35:20;;;;;;;3.35;3.00;;;17.60;92.10;;;;;;6184390;23;20001;-69
2021/06/10 00:37:46;;;;;;;4.78;3.40;;;17.60;92.70;;;;;;6184222;23;20426;-69
2021/06/10 00:40:13;;;;;;;3.65;3.03;;;17.50;94.10;;;;;;6184298;23;20020;-68
2021/06/10 00:42:39;;;;;;;3.75;2.90;;;17.50;95.10;;;;;;6184153;23;20001;-68
2021/06/10 00:45:11;;;;;;;3.58;2.90;;;17.40;94.60;;;;;;6184050;23;20021;-68
2021/06/10 00:47:37;;;;;;;3.80;3.15;;;17.40;95.00;;;;;;6184409;23;19997;-68
2021/06/10 00:50:05;;;;;;;3.03;2.75;;;17.30;95.60;;;;;;6184500;23;20015;-68
2021/06/10 00:52:32;;;;;;;4.65;3.08;;;17.30;96.00;;;;;;6184335;23;20028;-68
2021/06/10 00:54:58;;;;;;;6.38;2.88;;;17.20;96.30;;;;;;6184419;23;20009;-69
2021/06/10 00:57:24;;;;;;;5.95;3.58;;;17.20;96.50;;;;;;6184616;23;20299;-69
2021/06/10 00:59:50;;;;;;;3.72;3.30;;;17.20;96.70;;;;;;6183898;23;20013;-69
2021/06/10 01:02:15;;;;;;;4.20;3.33;;;17.10;97.40;;;;;;6184166;23;20007;-69
2021/06/10 01:04:41;;;;;;;3.63;2.97;;;17.10;97.90;;;;;;6184018;23;20050;-69
2021/06/10 01:07:18;;;;;;;3.22;2.92;;;17.00;99.10;;;;;;6184125;23;20005;-69
2021/06/10 01:45:49;;;;;;;5.13;3.70;;;16.50;99.90;;;;;;6166554;23;20021;-70
2021/06/10 01:48:18;;;;;;;3.97;3.13;;;16.50;99.90;;;;;;6159161;23;20453;-71
2021/06/10 01:50:48;;;;;;;3.83;3.40;;;16.50;99.90;;;;;;6186008;23;20072;-72
2021/06/10 01:53:16;;;;;;;3.88;3.28;;;16.40;99.90;;;;;;6185837;23;20009;-71
2021/06/10 01:55:43;;;;;;;3.60;3.30;;;16.40;99.90;;;;;;6185940;23;20004;-71
2021/06/10 01:58:10;;;;;;;5.03;3.90;;;16.40;99.90;;;;;;6185783;23;20005;-70
2021/06/10 02:00:36;;;;;;;4.13;3.72;;;16.30;99.90;;;;;;6159264;23;20399;-71
2021/06/10 02:03:04;;;;;;;5.18;3.58;;;16.30;99.90;;;;;;6186078;23;20010;-73
2021/06/10 02:05:31;;;;;;;3.63;3.33;;;16.30;99.90;;;;;;6185773;23;20076;-73
2021/06/10 02:07:57;;;;;;;4.30;3.90;;;16.20;99.90;;;;;;6185857;23;20004;-73
2021/06/10 02:10:26;;;;;;;4.10;3.70;;;16.20;99.90;;;;;;6186016;23;20492;-73
2021/06/10 02:12:53;;;;;;;3.95;3.65;;;16.20;99.90;;;;;;6186046;23;20037;-73
2021/06/10 02:15:20;;;;;;;7.03;3.50;;;16.20;99.90;;;;;;6185850;23;20084;-73
2021/06/10 02:17:48;;;;;;;3.42;3.13;;;16.20;99.90;;;;;;6185790;23;20005;-72
2021/06/10 02:20:17;;;;;;;3.70;3.40;;;16.20;99.90;;;;;;6185267;23;20016;-72
2021/06/10 02:22:44;;;;;;;4.90;3.55;;;16.20;99.90;;;;;;6185761;23;20080;-73
2021/06/10 02:25:10;;;;;;;3.92;3.60;;;16.20;99.90;;;;;;6185686;23;20091;-73
2021/06/10 02:27:36;;;;;;;4.05;3.50;;;16.20;99.90;;;;;;6185660;23;20005;-73
2021/06/10 02:30:04;;;;;;;4.53;3.13;;;16.20;99.90;;;;;;6185565;23;20077;-73
2021/06/10 02:32:30;;;;;;;4.20;3.53;;;16.20;99.90;;;;;;6159173;23;20010;-73
2021/06/10 02:34:55;;;;;;;4.10;3.70;;;16.30;99.90;;;;;;6185642;23;20425;-72
2021/06/10 02:37:23;;;;;;;4.43;4.03;;;16.30;99.90;;;;;;6185300;23;20425;-72
2021/06/10 02:39:52;;;;;;;4.88;3.50;;;16.30;99.90;;;;;;6185679;23;20021;-72
2021/06/10 02:42:19;;;;;;;3.90;3.58;;;16.40;99.90;;;;;;6185549;23;20028;-72
2021/06/10 02:44:49;;;;;;;4.15;3.75;;;16.40;99.90;;;;;;6185489;23;20037;-72
2021/06/10 02:47:16;;;;;;;7.07;4.32;;;16.50;99.90;;;;;;6185411;23;20064;-72
2021/06/10 02:49:45;;;;;;;4.30;3.90;;;16.70;99.90;;;;;;6185501;23;20005;-71
2021/06/10 02:52:16;;;;;;;5.43;3.88;;;16.90;99.90;;;;;;6185202;23;20081;-71
2021/06/10 02:54:44;;;;;;;4.15;3.72;;;17.10;99.90;;;;;;6185343;23;20051;-72
2021/06/10 02:57:11;;;;;;;4.38;3.63;;;17.30;99.90;;;;;;6185374;23;20402;-72
2021/06/10 02:59:39;;;;;;;3.80;3.50;;;17.30;99.90;;;;;;6185549;23;20017;-71
2021/06/10 03:02:05;;;;;;;3.42;3.13;;;17.40;99.90;;;;;;6185407;23;20009;-71
2021/06/10 03:04:32;;;;;;;4.30;3.90;;;17.30;99.90;;;;;;6185608;23;20104;-71
2021/06/10 03:06:59;;;;;;;3.63;3.33;;;17.30;99.90;;;;;;6185101;23;19997;-71
2021/06/10 03:09:26;;;;;;;7.20;3.58;;;17.30;99.90;;;;;;6185300;23;20341;-71
2021/06/10 03:11:53;;;;;;;4.47;3.70;;;17.40;99.90;;;;;;6185195;23;20028;-71
2021/06/10 03:14:20;;;;;;;4.95;3.50;;;17.40;99.90;;;;;;6185182;23;20009;-71
2021/06/10 03:16:47;;;;;;;4.13;3.60;;;17.50;99.90;;;;;;6185435;23;20028;-72
2021/06/10 03:19:16;;;;;;;3.55;3.20;;;17.80;99.90;;;;;;6185203;23;20025;-73
2021/06/10 03:21:43;;;;;;;4.35;3.67;;;18.20;99.90;;;;;;6185189;23;20005;-72
2021/06/10 03:24:09;;;;;;;3.80;3.42;;;18.60;99.90;;;;;;6184949;23;20009;-72
2021/06/10 03:26:36;;;;;;;3.67;3.33;;;19.00;98.20;;;;;;6185072;23;20032;-72
2021/06/10 03:29:03;;;;;;;3.78;3.47;;;19.30;96.40;;;;;;6158530;23;20005;-72
2021/06/10 03:31:30;;;;;;;5.10;3.47;;;19.70;94.70;;;;;;6185396;23;20375;-72
2021/06/10 03:33:57;;;;;;;9.32;3.20;;;20.00;92.70;;;;;;6158829;23;20012;-72
2021/06/10 03:36:24;;;;;;;4.47;3.22;;;20.40;90.80;;;;;;6184775;23;20051;-71
2021/06/10 03:38:51;;;;;;;3.70;3.40;;;20.60;88.80;;;;;;6158603;23;20006;-72
2021/06/10 03:41:18;;;;;;;5.28;3.50;;;20.90;86.20;;;;;;6184678;23;20005;-72
2021/06/10 03:43:45;;;;;;;3.78;3.38;;;21.10;84.10;;;;;;6184942;23;20005;-72
2021/06/10 03:46:11;;;;;;;4.72;3.65;;;21.30;82.60;;;;;;6184440;23;20045;-73
2021/06/10 03:48:41;;;;;;;3.80;3.50;;;21.50;81.50;;;;;;6184802;23;20001;-73
2021/06/10 03:51:18;;;;;;;4.03;3.50;;;21.70;78.90;;;;;;6184410;23;20063;-72
2021/06/10 03:53:46;;;;;;;3.75;3.45;;;21.90;77.90;;;;;;6158624;23;20356;-73
2021/06/10 03:56:12;;;;;;;3.42;3.10;;;22.20;76.40;;;;;;6184778;23;20000;-72
2021/06/10 03:58:37;;;;;;;5.00;3.42;;;22.40;75.30;;;;;;6184814;23;20294;-72
2021/06/10 04:01:03;;;;;;;3.75;3.45;;;22.70;74.80;;;;;;6184792;23;20020;-72
2021/06/10 04:03:29;;;;;;;3.50;3.20;;;22.90;72.60;;;;;;6184964;23;20044;-72
2021/06/10 04:05:56;;;;;;;4.20;3.40;;;23.10;71.40;;;;;;6185025;23;20004;-72
2021/06/10 04:08:22;;;;;;;3.10;2.90;;;23.40;70.10;;;;;;6184642;23;20001;-73
2021/06/10 04:10:47;;;;;;;3.80;3.45;;;23.50;68.90;;;;;;6184726;23;20008;-72
2021/06/10 04:13:13;;;;;;;4.00;3.70;;;23.70;68.80;;;;;;6184423;23;20333;-72
2021/06/10 04:15:39;;;;;;;3.50;3.10;;;23.90;68.30;;;;;;6184481;23;20012;-73
2021/06/10 04:18:05;;;;;;;3.50;3.20;;;24.30;66.90;;;;;;6184410;23;20002;-73
2021/06/10 04:20:31;;;;;;;3.28;3.05;;;24.50;65.30;;;;;;6184782;23;20012;-73
2021/06/10 04:22:57;;;;;;;6.97;3.30;;;24.50;64.90;;;;;;6184483;23;20329;-72
2021/06/10 04:25:22;;;;;;;6.68;3.15;;;24.70;64.20;;;;;;6184623;23;20012;-72
2021/06/10 04:27:48;;;;;;;3.63;3.33;;;24.80;64.10;;;;;;6184498;23;20013;-72
2021/06/10 04:30:16;;;;;;;3.78;3.40;;;25.00;62.60;;;;;;6184667;23;20013;-69
2021/06/10 04:32:44;;;;;;;3.22;2.92;;;25.10;62.60;;;;;;6184631;23;20001;-74
2021/06/10 04:35:11;;;;;;;4.40;3.08;;;25.30;61.80;;;;;;6184202;23;20084;-75
2021/06/10 04:37:37;;;;;;;3.80;3.10;;;25.40;61.40;;;;;;6184647;23;20073;-76
2021/06/10 04:40:05;;;;;;;3.15;2.80;;;25.50;60.50;;;;;;6184592;23;20398;-75
2021/06/10 04:42:31;;;;;;;6.13;3.10;;;25.60;60.20;;;;;;6184589;23;20064;-79
2021/06/10 04:44:57;;;;;;;3.05;2.78;;;25.80;59.80;;;;;;6183979;23;20066;-75
2021/06/10 04:47:22;;;;;;;3.03;2.78;;;25.80;59.40;;;;;;6184004;23;20080;-72
2021/06/10 04:49:48;;;;;;;3.40;2.92;;;26.00;60.00;;;;;;6158009;23;20075;-77
2021/06/10 04:52:14;;;;;;;4.40;3.03;;;26.30;59.50;;;;;;6184173;23;20481;-73
2021/06/10 04:54:40;;;;;;;5.20;2.90;;;26.50;59.10;;;;;;6184336;23;20028;-73
2021/06/10 04:57:06;;;;;;;5.15;2.88;;;26.60;58.10;;;;;;6183968;23;20005;-73
2021/06/10 04:59:32;;;;;;;5.63;2.90;;;26.80;58.40;;;;;;6184575;23;20414;-76
2021/06/10 05:01:58;;;;;;;3.40;3.10;;;27.00;57.80;;;;;;6184008;23;20431;-75
2021/06/10 05:04:24;;;;;;;8.23;2.80;;;27.00;57.20;;;;;;6184065;23;20001;-77
2021/06/10 05:06:51;;;;;;;4.30;3.10;;;26.90;56.80;;;;;;6184123;23;20432;-77
2021/06/10 05:09:17;;;;;;;3.28;2.90;;;27.00;57.10;;;;;;6184171;23;20309;-77
2021/06/10 05:11:43;;;;;;;5.78;2.95;;;27.30;56.70;;;;;;6184413;23;19997;-77
2021/06/10 05:14:08;;;;;;;9.23;3.17;;;27.40;56.50;;;;;;6183903;23;20008;-74
2021/06/10 05:16:34;;;;;;;4.10;3.22;;;27.60;56.20;;;;;;6184012;23;20031;-75
2021/06/10 05:19:00;;;;;;;6.35;2.85;;;27.80;55.70;;;;;;6184431;23;20012;-74
2021/06/10 05:21:26;;;;;;;9.52;3.03;;;27.90;54.90;;;;;;6184272;23;20008;-74
2021/06/10 05:23:51;;;;;;;4.68;3.28;;;28.10;54.90;;;;;;6184187;23;20429;-75
2021/06/10 05:26:17;;;;;;;8.43;2.70;;;28.20;54.10;;;;;;6183827;23;20001;-74
2021/06/10 05:28:43;;;;;;;7.18;2.97;;;28.30;53.80;;;;;;6184233;23;20001;-75
2021/06/10 05:31:09;;;;;;;7.75;2.63;;;28.40;54.20;;;;;;6183985;23;20416;-74
2021/06/10 05:33:36;;;;;;;2.80;2.60;;;28.80;52.80;;;;;;6184265;23;20012;-74
2021/06/10 05:36:02;;;;;;;6.60;2.13;;;28.90;53.30;;;;;;6184062;23;20039;-74
2021/06/10 05:38:28;;;;;;;6.50;2.88;;;29.10;52.80;;;;;;6183918;23;20425;-74
2021/06/10 05:40:54;;;;;;;2.85;2.47;;;29.20;51.70;;;;;;6184042;23;20013;-74
2021/06/10 05:43:22;;;;;;;5.45;2.65;;;29.30;51.90;;;;;;6184207;23;20302;-75
2021/06/10 05:45:48;;;;;;;5.75;2.95;;;29.50;52.50;;;;;;6183772;23;20433;-74
2021/06/10 05:48:14;;;;;;;4.60;2.55;;;29.60;52.10;;;;;;6184185;23;20084;-75
2021/06/10 05:50:40;;;;;;;3.65;2.60;;;29.90;52.20;;;;;;6184050;23;20024;-75
2021/06/10 05:53:06;;;;;;;2.78;2.58;;;30.00;50.60;;;;;;6183256;23;20013;-76
2021/06/10 05:55:31;;;;;;;3.10;2.40;;;30.10;50.20;;;;;;6183819;23;20101;-74
2021/06/10 05:57:57;;;;;;;3.03;2.58;;;30.20;49.40;;;;;;6183831;23;20459;-73
2021/06/10 06:00:24;;;;;;;7.38;3.03;;;30.20;49.10;;;;;;6183826;23;20020;-71
2021/06/10 06:02:50;;;;;;;2.88;2.30;;;30.40;49.60;;;;;;6184259;23;20007;-74
2021/06/10 06:05:16;;;;;;;7.80;2.80;;;30.40;48.80;;;;;;6183692;23;20409;-74
2021/06/10 06:07:41;;;;;;;6.80;2.85;;;30.30;48.70;;;;;;6183793;23;20072;-76
2021/06/10 06:10:08;;;;;;;6.70;3.10;;;30.40;48.40;;;;;;6184266;23;20032;-76
2021/06/10 06:12:34;;;;;;;6.53;3.00;;;30.20;48.40;;;;;;6157677;23;20008;-70
2021/06/10 06:15:00;;;;;;;15.93;3.40;;;30.20;48.40;;;;;;6185753;23;20025;-71
2021/06/10 06:17:26;;;;;;;19.17;2.88;;;29.90;49.00;;;;;;6185854;23;20067;-71
2021/06/10 06:19:51;;;;;;;8.48;2.72;;;30.00;48.80;;;;;;6185728;23;20013;-71
2021/06/10 06:22:17;;;;;;;4.28;2.40;;;30.00;48.70;;;;;;6185440;23;20032;-71
2021/06/10 06:24:43;;;;;;;7.57;2.88;;;30.00;48.00;;;;;;6185917;23;20008;-71
2021/06/10 06:27:09;;;;;;;3.60;2.50;;;30.20;48.30;;;;;;6185934;23;20325;-71
2021/06/10 06:29:36;;;;;;;8.18;2.50;;;30.30;48.00;;;;;;6185674;23;20008;-71
2021/06/10 06:32:02;;;;;;;2.80;1.90;;;30.30;48.80;;;;;;6185556;23;20001;-71
2021/06/10 06:34:28;;;;;;;5.13;2.22;;;30.40;47.30;;;;;;6185291;23;20433;-71
2021/06/10 06:36:54;;;;;;;16.67;3.38;;;30.40;47.10;;;;;;6185812;23;20003;-71
2021/06/10 06:39:20;;;;;;;3.47;2.03;;;30.50;47.80;;;;;;6185592;23;20015;-70
2021/06/10 06:41:46;;;;;;;3.28;1.80;;;30.70;46.80;;;;;;6185443;23;20012;-70
2021/06/10 06:44:11;;;;;;;18.17;3.28;;;30.70;46.20;;;;;;6185373;23;19997;-70
2021/06/10 06:46:37;;;;;;;3.38;1.70;;;30.80;45.80;;;;;;6185120;23;20334;-72
2021/06/10 06:49:03;;;;;;;3.85;1.50;;;30.70;45.60;;;;;;6185714;23;20009;-70
2021/06/10 06:51:29;;;;;;;12.73;2.63;;;30.70;45.90;;;;;;6185443;23;20051;-71
2021/06/10 06:53:56;;;;;;;8.18;2.05;;;30.60;45.30;;;;;;6185359;23;20092;-72
2021/06/10 06:56:23;;;;;;;2.92;1.60;;;30.50;45.00;;;;;;6185032;23;20047;-72
2021/06/10 06:58:50;;;;;;;3.05;1.60;;;30.60;45.50;;;;;;6185584;23;20333;-74
2021/06/10 07:01:15;;;;;;;2.15;1.65;;;30.60;45.20;;;;;;6184927;23;20038;-72
2021/06/10 07:03:42;;;;;;;7.25;1.92;;;30.60;45.00;;;;;;6185255;23;20001;-70
2021/06/10 07:06:08;;;;;;;3.63;1.50;;;30.60;44.00;;;;;;6185159;23;20005;-76
2021/06/10 07:08:34;;;;;;;4.60;1.77;;;30.40;43.70;;;;;;6185603;23;20485;-84
2021/06/10 07:10:59;;;;;;;12.80;2.10;;;30.50;44.00;;;;;;6185151;23;20000;-70
2021/06/10 07:13:26;;;;;;;3.92;1.25;;;30.40;43.80;;;;;;6185033;23;20080;-70
2021/06/10 07:15:52;;;;;;;4.47;1.52;;;30.40;43.40;;;;;;6185107;23;20344;-73
2021/06/10 07:18:19;;;;;;;5.25;1.33;;;30.30;42.90;;;;;;6185311;23;20001;-73
2021/06/10 07:20:44;;;;;;;9.45;1.67;;;30.30;42.40;;;;;;6185049;23;20017;-73
2021/06/10 07:23:10;;;;;;;2.40;1.23;;;30.10;42.20;;;;;;6184910;23;20008;-72
2021/06/10 07:25:36;;;;;;;3.65;1.30;;;29.70;42.80;;;;;;6182679;23;20008;-75
2021/06/10 07:28:03;;;;;;;2.63;1.35;;;29.70;44.40;;;;;;6182823;23;20008;-72
2021/06/10 07:30:29;;;;;;;3.17;1.17;;;29.70;44.00;;;;;;6184402;23;20544;-72
2021/06/10 07:32:55;;;;;;;0.90;0.90;;;29.60;42.50;;;;;;6184979;23;20001;-76
2021/06/10 07:35:21;;;;;;;7.40;1.23;;;29.70;42.40;;;;;;6184757;23;20477;-79
2021/06/10 07:37:56;;;;;;;1.48;0.90;;;29.80;41.80;;;;;;6184276;23;20029;-70
2021/06/10 07:40:25;;;;;;;2.15;0.90;;;29.90;41.20;;;;;;6183925;23;20008;-69
2021/06/10 07:42:51;;;;;;;4.27;0.80;;;29.80;40.60;;;;;;6182898;23;20028;-67
2021/06/10 07:45:17;;;;;;;9.23;1.23;;;29.80;40.50;;;;;;6182999;23;20445;-69
2021/06/10 07:47:42;;;;;;;41.38;2.03;;;29.60;41.60;;;;;;6182504;23;20005;-69
2021/06/10 07:50:09;;;;;;;5.25;1.20;;;29.40;41.20;;;;;;6184214;23;20351;-68
2021/06/10 07:52:35;;;;;;;42.58;2.72;;;29.30;41.60;;;;;;6183793;23;20445;-69
2021/06/10 07:55:01;;;;;;;13.23;1.80;;;29.10;40.80;;;;;;6184243;23;20041;-69
2021/06/10 07:57:27;;;;;;;4.25;0.90;;;29.10;41.60;;;;;;6183790;23;19997;-68
2021/06/10 07:59:53;;;;;;;2.95;1.00;;;29.10;41.30;;;;;;6184504;23;20071;-72
2021/06/10 08:02:19;;;;;;;5.30;1.10;;;29.10;41.80;;;;;;6182542;23;20072;-67
2021/06/10 08:04:44;;;;;;;5.28;1.15;;;29.20;42.60;;;;;;6184599;23;20444;-70
2021/06/10 08:07:11;;;;;;;1.85;0.90;;;29.20;42.40;;;;;;6185078;23;20364;-70
2021/06/10 08:09:37;;;;;;;31.52;2.95;;;29.20;40.50;;;;;;6184602;23;20084;-70
2021/06/10 08:12:03;;;;;;;1.55;0.98;;;29.10;40.30;;;;;;6184679;23;20043;-70
2021/06/10 08:14:29;;;;;;;0.90;0.90;;;29.10;40.80;;;;;;6184740;23;19998;-70
2021/06/10 08:16:55;;;;;;;8.57;1.30;;;29.20;41.20;;;;;;6184805;23;20023;-70
2021/06/10 08:19:21;;;;;;;8.75;1.35;;;29.10;39.90;;;;;;6158147;23;20066;-70
2021/06/10 08:21:47;;;;;;;45.97;4.00;;;29.10;39.20;;;;;;6184630;23;20546;-70
2021/06/10 08:24:14;;;;;;;4.50;1.23;;;29.20;38.80;;;;;;6158532;23;20028;-70
2021/06/10 08:26:43;;;;;;;4.05;1.35;;;29.20;39.30;;;;;;6184647;23;20068;-70
2021/06/10 08:29:09;;;;;;;1.20;1.00;;;29.10;40.00;;;;;;6184292;23;19997;-71
2021/06/10 08:31:35;;;;;;;4.90;1.20;;;29.00;39.80;;;;;;6184338;23;20504;-71
2021/06/10 08:34:01;;;;;;;3.30;1.27;;;28.80;38.70;;;;;;6184748;23;20007;-71
2021/06/10 08:36:27;;;;;;;8.57;1.50;;;28.80;38.60;;;;;;6184153;23;20521;-71
2021/06/10 08:38:53;;;;;;;2.05;1.10;;;28.80;39.40;;;;;;6184387;23;20132;-71
2021/06/10 08:41:18;;;;;;;4.00;1.23;;;28.80;39.60;;;;;;6184421;23;20013;-71
2021/06/10 08:43:45;;;;;;;6.43;1.50;;;28.70;40.10;;;;;;6184527;23;20001;-71
2021/06/10 08:46:13;;;;;;;6.68;1.27;;;28.70;40.30;;;;;;6183955;23;20047;-71
2021/06/10 08:48:42;;;;;;;4.82;1.00;;;28.70;38.90;;;;;;6184006;23;20005;-71
2021/06/10 08:51:10;;;;;;;10.73;1.35;;;28.70;37.90;;;;;;6184467;23;20357;-71
2021/06/10 08:53:37;;;;;;;14.40;1.92;;;28.60;38.90;;;;;;6183970;23;20401;-71
2021/06/10 08:56:03;;;;;;;5.28;1.17;;;28.60;39.50;;;;;;6184157;23;20440;-71
2021/06/10 08:58:30;;;;;;;3.25;1.13;;;28.70;40.10;;;;;;6184327;23;20004;-71
2021/06/10 09:00:58;;;;;;;19.98;2.08;;;28.70;38.70;;;;;;6184286;23;20433;-71
2021/06/10 09:03:26;;;;;;;22.92;2.10;;;28.60;39.40;;;;;;6184289;23;20020;-71
2021/06/10 09:06:07;;;;;;;4.63;1.05;;;28.60;39.60;;;;;;6184188;23;20001;-71
2021/06/10 09:08:43;;;;;;;4.95;1.05;;;28.60;39.40;;;;;;6183928;23;19998;-69
2021/06/10 09:11:20;;;;;;;1.05;0.70;;;28.60;39.60;;;;;;6184361;23;20005;-70
2021/06/10 09:13:48;;;;;;;3.65;1.00;;;28.60;40.10;;;;;;6184491;23;20009;-70
2021/06/10 09:16:27;;;;;;;23.23;1.73;;;28.50;39.50;;;;;;6184004;23;20001;-69
2021/06/10 09:18:57;;;;;;;1.90;0.90;;;28.50;39.50;;;;;;6183934;23;20080;-70
2021/06/10 09:21:25;;;;;;;3.28;1.05;;;28.50;38.80;;;;;;6183806;23;20005;-70
2021/06/10 09:23:51;;;;;;;1.10;1.00;;;28.40;39.30;;;;;;6184333;23;20005;-70
2021/06/10 09:26:17;;;;;;;2.13;1.33;;;28.50;39.70;;;;;;6183966;23;20091;-70
2021/06/10 09:28:44;;;;;;;4.22;1.23;;;28.50;39.90;;;;;;6157995;23;20010;-70
2021/06/10 09:31:10;;;;;;;3.85;1.20;;;28.50;39.90;;;;;;6157723;23;20337;-70
2021/06/10 09:33:41;;;;;;;25.63;2.00;;;28.40;40.70;;;;;;6184044;23;20063;-71
2021/06/10 09:36:07;;;;;;;12.65;1.92;;;28.30;40.00;;;;;;6184001;23;20065;-71
2021/06/10 09:38:32;;;;;;;16.17;1.88;;;28.20;39.60;;;;;;6183773;23;20490;-71
2021/06/10 09:41:04;;;;;;;8.82;1.60;;;28.10;39.90;;;;;;6184225;23;20033;-70
2021/06/10 09:43:43;;;;;;;8.82;1.30;;;28.10;39.20;;;;;;6184106;23;20004;-71
2021/06/10 09:46:09;;;;;;;8.20;1.20;;;28.00;40.50;;;;;;6183949;23;20023;-73
2021/06/10 09:48:35;;;;;;;9.52;1.52;;;28.00;40.30;;;;;;6185197;23;20036;-73
2021/06/10 09:51:02;;;;;;;6.72;1.27;;;28.10;41.00;;;;;;6186461;23;20386;-73
2021/06/10 09:53:32;;;;;;;5.00;1.40;;;28.10;41.00;;;;;;6185671;23;20429;-71
2021/06/10 09:56:08;;;;;;;20.15;2.20;;;28.10;39.90;;;;;;6186332;23;20029;-70
2021/06/10 09:58:39;;;;;;;2.67;1.30;;;28.10;41.30;;;;;;6185920;23;20009;-71
2021/06/10 10:01:14;;;;;;;15.40;1.35;;;28.10;40.60;;;;;;6186214;23;20016;-70
2021/06/10 10:03:43;;;;;;;3.97;1.20;;;28.10;40.20;;;;;;6185684;23;20005;-70
2021/06/10 10:06:19;;;;;;;14.32;1.77;;;28.00;39.50;;;;;;6185917;23;20045;-71
2021/06/10 10:08:50;;;;;;;26.27;1.55;;;27.90;40.00;;;;;;6185873;23;20012;-70
2021/06/10 10:11:17;;;;;;;26.63;2.10;;;27.80;40.60;;;;;;6186152;23;20325;-70
2021/06/10 10:13:46;;;;;;;2.80;1.23;;;27.80;40.70;;;;;;6185513;23;19997;-70
2021/06/10 10:16:12;;;;;;;4.15;1.20;;;27.80;39.70;;;;;;6185568;23;20005;-70
2021/06/10 10:18:39;;;;;;;7.68;1.50;;;27.70;39.40;;;;;;6185324;23;20028;-70
2021/06/10 10:21:06;;;;;;;12.25;1.67;;;27.70;40.00;;;;;;6185737;23;20016;-70
2021/06/10 10:23:34;;;;;;;4.25;1.35;;;27.70;40.90;;;;;;6185137;23;20001;-71
2021/06/10 10:26:05;;;;;;;4.00;1.08;;;27.70;40.80;;;;;;6185642;23;20016;-70
2021/06/10 10:28:34;;;;;;;13.35;1.48;;;27.60;41.50;;;;;;6185434;23;20520;-73
2021/06/10 10:31:02;;;;;;;1.20;1.10;;;27.60;41.40;;;;;;6185506;23;20419;-70
2021/06/10 10:33:29;;;;;;;18.58;1.70;;;27.50;42.10;;;;;;6185220;23;20056;-70
2021/06/10 10:36:04;;;;;;;1.10;1.00;;;27.50;40.70;;;;;;6159156;23;20392;-70
2021/06/10 10:38:32;;;;;;;17.25;1.60;;;27.40;39.60;;;;;;6185664;23;20025;-71
2021/06/10 10:41:10;;;;;;;3.58;1.30;;;27.30;40.70;;;;;;6185486;23;20005;-71
2021/06/10 10:43:36;;;;;;;3.45;1.38;;;27.30;41.30;;;;;;6185632;23;20028;-70
2021/06/10 10:46:18;;;;;;;17.67;3.90;;;27.20;41.20;;;;;;6185248;23;20013;-70
2021/06/10 10:48:46;;;;;;;245.73;24.48;;;27.20;42.50;;;;;;6185368;23;20390;-70
2021/06/10 10:51:33;;;;;;;15.23;2.10;;;27.10;42.20;;;;;;6185769;23;20032;-70
2021/06/10 10:54:02;;;;;;;11.20;1.70;;;27.10;41.10;;;;;;6185430;23;20475;-71
2021/06/10 10:56:39;;;;;;;21.75;1.95;;;27.00;40.70;;;;;;6185275;23;20009;-71
2021/06/10 10:59:14;;;;;;;89.57;7.88;;;26.80;40.40;;;;;;6184972;23;20001;-72
2021/06/10 11:01:42;;;;;;;46.10;5.13;;;26.80;41.90;;;;;;6185305;23;20013;-71
2021/06/10 11:04:28;;;;;;;36.50;2.47;;;26.70;41.70;;;;;;6185604;23;20004;-71
2021/06/10 11:06:53;;;;;;;4.97;1.52;;;26.70;42.20;;;;;;6185247;23;20036;-71
2021/06/10 11:09:21;;;;;;;6.57;1.75;;;26.70;42.60;;;;;;6185739;23;20386;-71
2021/06/10 11:11:57;;;;;;;5.85;1.45;;;26.70;42.10;;;;;;6185791;23;20009;-72
2021/06/10 11:14:50;;;;;;;15.52;1.90;;;26.70;41.70;;;;;;6185396;23;20001;-72
2021/06/10 11:17:29;;;;;;;18.60;1.98;;;26.50;41.10;;;;;;6185144;23;20005;-72
2021/06/10 11:20:07;;;;;;;78.43;4.88;;;26.50;41.50;;;;;;6184932;23;20433;-72
2021/06/10 11:22:36;;;;;;;16.63;1.90;;;26.50;41.00;;;;;;6184917;23;20075;-72
2021/06/10 11:25:08;;;;;;;14.63;2.23;;;26.40;41.70;;;;;;6185049;23;20492;-72
2021/06/10 11:27:35;;;;;;;50.30;4.45;;;26.40;42.10;;;;;;6185078;23;20128;-72
2021/06/10 11:30:26;;;;;;;23.00;3.95;;;26.30;43.40;;;;;;6185346;23;20028;-71
2021/06/10 11:33:17;;;;;;;13.43;2.63;;;26.30;47.20;;;;;;6184925;23;19997;-69
2021/06/10 11:35:46;;;;;;;2.88;1.63;;;26.20;47.00;;;;;;6185186;23;20419;-71
2021/06/10 11:38:21;;;;;;;4.57;1.90;;;26.10;46.70;;;;;;6185109;23;20428;-73
2021/06/10 11:41:02;;;;;;;6.72;1.80;;;26.10;47.20;;;;;;6184738;23;20009;-73
2021/06/10 11:43:31;;;;;;;12.85;2.33;;;26.10;47.40;;;;;;6184881;23;20024;-74
2021/06/10 11:46:10;;;;;;;31.13;2.25;;;26.10;45.30;;;;;;6184582;23;20076;-74
2021/06/10 11:48:46;;;;;;;14.95;2.50;;;26.00;46.10;;;;;;6184304;23;20456;-74
2021/06/10 11:51:27;;;;;;;10.63;1.77;;;26.10;45.60;;;;;;6157878;23;20428;-73
2021/06/10 11:53:56;;;;;;;6.13;1.50;;;26.00;45.60;;;;;;6185118;23;20060;-72
2021/06/10 11:56:27;;;;;;;4.55;1.30;;;26.10;45.70;;;;;;6184951;23;20001;-73
2021/06/10 11:58:54;;;;;;;7.47;1.70;;;26.10;45.00;;;;;;6158563;23;20489;-72
2021/06/10 12:01:19;;;;;;;2.63;1.20;;;26.20;44.90;;;;;;6184532;23;20013;-69
2021/06/10 12:03:46;;;;;;;3.25;1.30;;;26.20;45.60;;;;;;6184540;23;20014;-73
2021/06/10 12:06:14;;;;;;;5.85;1.30;;;26.20;45.50;;;;;;6184626;23;20007;-72
2021/06/10 12:08:45;;;;;;;3.10;1.40;;;26.20;44.00;;;;;;6184732;23;20005;-72
2021/06/10 12:11:16;;;;;;;17.77;1.90;;;26.20;44.60;;;;;;6184251;23;20001;-72
2021/06/10 12:13:43;;;;;;;6.55;1.58;;;26.20;43.30;;;;;;6184696;23;20009;-72
2021/06/10 12:16:10;;;;;;;13.57;2.45;;;26.20;42.60;;;;;;6184632;23;20001;-72
2021/06/10 12:18:37;;;;;;;46.67;3.10;;;26.10;42.50;;;;;;6184243;23;19997;-72
2021/06/10 12:21:09;;;;;;;21.25;2.33;;;26.00;42.60;;;;;;6184800;23;20013;-72
2021/06/10 12:23:38;;;;;;;13.48;2.28;;;26.10;41.90;;;;;;6184047;23;20027;-72
2021/06/10 12:26:07;;;;;;;80.97;5.55;;;26.10;42.70;;;;;;6184566;23;20001;-72
2021/06/10 12:28:44;;;;;;;36.25;3.10;;;26.10;43.10;;;;;;6183689;23;20011;-73
2021/06/10 12:31:16;;;;;;;12.57;1.85;;;26.20;43.50;;;;;;6184112;23;20369;-73
2021/06/10 12:33:44;;;;;;;14.07;2.05;;;26.20;43.30;;;;;;6184569;23;20001;-73
2021/06/10 12:36:19;;;;;;;40.40;2.93;;;26.20;43.70;;;;;;6184905;23;20013;-73
2021/06/10 12:38:56;;;;;;;18.02;2.30;;;26.20;42.80;;;;;;6184354;23;20239;-73
2021/06/10 12:41:29;;;;;;;10.43;2.40;;;26.20;44.50;;;;;;6184603;23;20013;-73
2021/06/10 12:44:12;;;;;;;27.75;2.83;;;26.20;45.70;;;;;;6183934;23;20005;-73
2021/06/10 12:47:02;;;;;;;19.63;2.40;;;26.20;45.60;;;;;;6183792;23;20074;-73
2021/06/10 12:49:43;;;;;;;71.22;4.88;;;26.10;46.10;;;;;;6165990;23;20009;-73
2021/06/10 12:52:26;;;;;;;6.18;1.90;;;26.10;46.70;;;;;;6184509;23;20040;-73
2021/06/10 12:55:02;;;;;;;8.05;1.92;;;26.10;47.50;;;;;;6184383;23;20009;-73
2021/06/10 12:57:33;;;;;;;3.47;2.03;;;26.20;46.90;;;;;;6184051;23;20012;-70
2021/06/10 13:00:12;;;;;;;33.25;4.00;;;26.20;47.30;;;;;;6183989;23;20047;-72
2021/06/10 13:02:38;;;;;;;;;;;26.20;47.10;;;;;;6184958;23;20088;-72
2021/06/10 13:05:12;;;;;;;5.22;2.28;;;26.10;47.40;;;;;;6184143;23;19959;-72
2021/06/10 13:07:45;;;;;;;4.55;2.00;;;26.10;47.90;;;;;;6184153;23;20036;-72
2021/06/10 13:10:34;;;;;;;14.35;2.83;;;26.10;48.30;;;;;;6157767;23;20449;-72
2021/06/10 13:13:00;;;;;;;9.57;2.00;;;26.20;48.40;;;;;;6184025;23;20425;-72
2021/06/10 13:15:26;;;;;;;7.15;2.00;;;26.20;48.30;;;;;;6184426;23;20055;-72
2021/06/10 13:18:06;;;;;;;2.22;1.50;;;26.30;48.20;;;;;;6157715;23;20329;-72
2021/06/10 13:20:52;;;;;;;2.83;2.08;;;26.30;48.40;;;;;;6184311;23;20013;-80
2021/06/10 13:23:27;;;;;;;12.25;2.17;;;26.20;48.50;;;;;;6186825;23;20455;-71
2021/06/10 13:26:27;;;;;;;12.82;2.40;;;26.20;48.10;;;;;;6184777;23;20680;-69
2021/06/10 13:28:52;;;;;;;7.68;1.90;;;26.20;49.10;;;;;;6156949;23;20059;-70